sensor_id;sensor_type;location;lat;lon;timestamp;P1;durP1;ratioP1;P2;durP2;ratioP2
80231;SDS011;74189;42.124;24.752;2023-12-20T00:01:21;49.17;;;22.70;;
80231;SDS011;74189;42.124;24.752;2023-12-20T00:03:47;55.47;;;24.52;;
80231;SDS011;74189;42.124;24.752;2023-12-20T00:06:13;58.05;;;25.17;;
80231;SDS011;74189;42.124;24.752;2023-12-20T00:08:38;56.63;;;23.38;;
80231;SDS011;74189;42.124;24.752;2023-12-20T00:11:04;40.67;;;20.75;;
80231;SDS011;74189;42.124;24.752;2023-12-20T00:13:30;43.92;;;20.23;;
80231;SDS011;74189;42.124;24.752;2023-12-20T00:15:55;47.63;;;21.90;;
80231;SDS011;74189;42.124;24.752;2023-12-20T00:18:21;56.28;;;21.95;;
80231;SDS011;74189;42.124;24.752;2023-12-20T00:20:46;50.13;;;21.52;;
80231;SDS011;74189;42.124;24.752;2023-12-20T00:23:12;44.05;;;19.75;;
80231;SDS011;74189;42.124;24.752;2023-12-20T00:25:38;50.45;;;21.30;;
80231;SDS011;74189;42.124;24.752;2023-12-20T00:28:04;45.13;;;21.52;;
80231;SDS011;74189;42.124;24.752;2023-12-20T00:30:29;48.53;;;22.45;;
80231;SDS011;74189;42.124;24.752;2023-12-20T00:32:55;47.10;;;22.48;;
80231;SDS011;74189;42.124;24.752;2023-12-20T00:35:21;53.50;;;24.05;;
80231;SDS011;74189;42.124;24.752;2023-12-20T00:37:47;46.65;;;23.55;;
80231;SDS011;74189;42.124;24.752;2023-12-20T00:40:12;46.58;;;22.77;;
80231;SDS011;74189;42.124;24.752;2023-12-20T00:42:38;48.75;;;21.90;;
80231;SDS011;74189;42.124;24.752;2023-12-20T00:45:04;43.63;;;22.08;;
80231;SDS011;74189;42.124;24.752;2023-12-20T00:47:30;45.38;;;19.83;;
80231;SDS011;74189;42.124;24.752;2023-12-20T00:49:56;42.60;;;18.50;;
80231;SDS011;74189;42.124;24.752;2023-12-20T00:52:22;35.33;;;18.08;;
80231;SDS011;74189;42.124;24.752;2023-12-20T00:54:48;41.80;;;19.45;;
80231;SDS011;74189;42.124;24.752;2023-12-20T00:57:14;38.75;;;19.42;;
80231;SDS011;74189;42.124;24.752;2023-12-20T00:59:40;41.70;;;19.92;;
80231;SDS011;74189;42.124;24.752;2023-12-20T01:02:06;42.47;;;20.65;;
80231;SDS011;74189;42.124;24.752;2023-12-20T01:04:31;40.10;;;21.15;;
80231;SDS011;74189;42.124;24.752;2023-12-20T01:06:57;46.70;;;22.63;;
80231;SDS011;74189;42.124;24.752;2023-12-20T01:09:23;51.50;;;23.80;;
80231;SDS011;74189;42.124;24.752;2023-12-20T01:11:51;43.22;;;22.75;;
80231;SDS011;74189;42.124;24.752;2023-12-20T01:14:17;43.35;;;20.88;;
80231;SDS011;74189;42.124;24.752;2023-12-20T01:16:43;37.00;;;19.88;;
80231;SDS011;74189;42.124;24.752;2023-12-20T01:19:08;43.90;;;20.33;;
80231;SDS011;74189;42.124;24.752;2023-12-20T01:21:34;43.28;;;22.05;;
80231;SDS011;74189;42.124;24.752;2023-12-20T01:24:00;42.92;;;22.00;;
80231;SDS011;74189;42.124;24.752;2023-12-20T01:26:25;39.80;;;20.02;;
80231;SDS011;74189;42.124;24.752;2023-12-20T01:28:51;40.15;;;20.40;;
80231;SDS011;74189;42.124;24.752;2023-12-20T01:31:17;43.30;;;20.23;;
80231;SDS011;74189;42.124;24.752;2023-12-20T01:33:42;30.92;;;17.95;;
80231;SDS011;74189;42.124;24.752;2023-12-20T01:36:08;36.75;;;19.27;;
80231;SDS011;74189;42.124;24.752;2023-12-20T01:38:34;39.40;;;19.88;;
80231;SDS011;74189;42.124;24.752;2023-12-20T01:40:59;46.42;;;22.80;;
80231;SDS011;74189;42.124;24.752;2023-12-20T01:43:25;48.40;;;21.83;;
80231;SDS011;74189;42.124;24.752;2023-12-20T01:45:51;42.05;;;20.67;;
80231;SDS011;74189;42.124;24.752;2023-12-20T01:48:17;36.85;;;18.40;;
80231;SDS011;74189;42.124;24.752;2023-12-20T01:50:44;37.72;;;18.60;;
80231;SDS011;74189;42.124;24.752;2023-12-20T01:53:11;34.13;;;20.02;;
80231;SDS011;74189;42.124;24.752;2023-12-20T01:55:40;42.70;;;20.15;;
80231;SDS011;74189;42.124;24.752;2023-12-20T01:58:07;39.33;;;20.33;;
80231;SDS011;74189;42.124;24.752;2023-12-20T02:00:35;45.10;;;19.83;;
80231;SDS011;74189;42.124;24.752;2023-12-20T02:03:01;39.65;;;19.55;;
80231;SDS011;74189;42.124;24.752;2023-12-20T02:05:27;36.03;;;17.67;;
80231;SDS011;74189;42.124;24.752;2023-12-20T02:07:59;31.40;;;17.55;;
80231;SDS011;74189;42.124;24.752;2023-12-20T02:10:25;36.95;;;16.63;;
80231;SDS011;74189;42.124;24.752;2023-12-20T02:12:52;28.98;;;15.98;;
80231;SDS011;74189;42.124;24.752;2023-12-20T02:15:17;31.33;;;16.38;;
80231;SDS011;74189;42.124;24.752;2023-12-20T02:17:43;32.22;;;15.57;;
80231;SDS011;74189;42.124;24.752;2023-12-20T02:20:11;34.22;;;16.52;;
80231;SDS011;74189;42.124;24.752;2023-12-20T02:22:37;27.20;;;14.88;;
80231;SDS011;74189;42.124;24.752;2023-12-20T02:25:02;33.72;;;15.98;;
80231;SDS011;74189;42.124;24.752;2023-12-20T02:27:28;35.65;;;17.48;;
80231;SDS011;74189;42.124;24.752;2023-12-20T02:29:54;35.85;;;17.90;;
80231;SDS011;74189;42.124;24.752;2023-12-20T02:32:20;35.35;;;17.10;;
80231;SDS011;74189;42.124;24.752;2023-12-20T02:34:47;42.05;;;19.48;;
80231;SDS011;74189;42.124;24.752;2023-12-20T02:37:13;46.55;;;20.77;;
80231;SDS011;74189;42.124;24.752;2023-12-20T02:39:40;47.63;;;21.85;;
80231;SDS011;74189;42.124;24.752;2023-12-20T02:42:05;47.97;;;21.02;;
80231;SDS011;74189;42.124;24.752;2023-12-20T02:44:31;40.67;;;19.58;;
80231;SDS011;74189;42.124;24.752;2023-12-20T02:46:56;34.25;;;17.55;;
80231;SDS011;74189;42.124;24.752;2023-12-20T02:49:22;42.35;;;19.75;;
80231;SDS011;74189;42.124;24.752;2023-12-20T02:51:48;38.40;;;18.38;;
80231;SDS011;74189;42.124;24.752;2023-12-20T02:54:13;33.63;;;17.02;;
80231;SDS011;74189;42.124;24.752;2023-12-20T02:56:39;33.60;;;16.75;;
80231;SDS011;74189;42.124;24.752;2023-12-20T02:59:05;41.75;;;19.65;;
80231;SDS011;74189;42.124;24.752;2023-12-20T03:01:31;37.38;;;18.60;;
80231;SDS011;74189;42.124;24.752;2023-12-20T03:03:56;35.92;;;17.05;;
80231;SDS011;74189;42.124;24.752;2023-12-20T03:06:22;32.38;;;15.90;;
80231;SDS011;74189;42.124;24.752;2023-12-20T03:08:47;29.00;;;14.73;;
80231;SDS011;74189;42.124;24.752;2023-12-20T03:11:13;31.17;;;15.15;;
80231;SDS011;74189;42.124;24.752;2023-12-20T03:13:39;26.63;;;14.27;;
80231;SDS011;74189;42.124;24.752;2023-12-20T03:16:10;29.95;;;14.35;;
80231;SDS011;74189;42.124;24.752;2023-12-20T03:18:37;27.80;;;13.80;;
80231;SDS011;74189;42.124;24.752;2023-12-20T03:21:02;30.45;;;13.35;;
80231;SDS011;74189;42.124;24.752;2023-12-20T03:23:29;31.67;;;14.85;;
80231;SDS011;74189;42.124;24.752;2023-12-20T03:25:55;28.23;;;13.55;;
80231;SDS011;74189;42.124;24.752;2023-12-20T03:28:21;28.38;;;14.30;;
80231;SDS011;74189;42.124;24.752;2023-12-20T03:30:48;26.63;;;14.50;;
80231;SDS011;74189;42.124;24.752;2023-12-20T03:33:13;31.25;;;15.13;;
80231;SDS011;74189;42.124;24.752;2023-12-20T03:35:39;32.70;;;15.88;;
80231;SDS011;74189;42.124;24.752;2023-12-20T03:38:05;31.10;;;15.27;;
80231;SDS011;74189;42.124;24.752;2023-12-20T03:40:30;36.80;;;17.15;;
80231;SDS011;74189;42.124;24.752;2023-12-20T03:42:56;38.47;;;18.48;;
80231;SDS011;74189;42.124;24.752;2023-12-20T03:45:21;39.75;;;19.63;;
80231;SDS011;74189;42.124;24.752;2023-12-20T03:47:47;41.72;;;19.25;;
80231;SDS011;74189;42.124;24.752;2023-12-20T03:50:13;43.90;;;19.42;;
80231;SDS011;74189;42.124;24.752;2023-12-20T03:52:39;43.20;;;20.38;;
80231;SDS011;74189;42.124;24.752;2023-12-20T03:55:05;36.17;;;18.95;;
80231;SDS011;74189;42.124;24.752;2023-12-20T03:57:31;37.33;;;20.77;;
80231;SDS011;74189;42.124;24.752;2023-12-20T03:59:56;46.30;;;22.17;;
80231;SDS011;74189;42.124;24.752;2023-12-20T04:02:22;48.55;;;22.85;;
80231;SDS011;74189;42.124;24.752;2023-12-20T04:04:47;45.05;;;23.83;;
80231;SDS011;74189;42.124;24.752;2023-12-20T04:07:13;46.15;;;22.55;;
80231;SDS011;74189;42.124;24.752;2023-12-20T04:09:40;41.38;;;21.13;;
80231;SDS011;74189;42.124;24.752;2023-12-20T04:12:06;45.15;;;22.02;;
80231;SDS011;74189;42.124;24.752;2023-12-20T04:14:32;41.65;;;21.90;;
80231;SDS011;74189;42.124;24.752;2023-12-20T04:16:57;47.00;;;21.10;;
80231;SDS011;74189;42.124;24.752;2023-12-20T04:19:24;47.47;;;22.48;;
80231;SDS011;74189;42.124;24.752;2023-12-20T04:21:50;47.25;;;21.23;;
80231;SDS011;74189;42.124;24.752;2023-12-20T04:24:16;42.95;;;20.60;;
80231;SDS011;74189;42.124;24.752;2023-12-20T04:26:41;44.83;;;19.55;;
80231;SDS011;74189;42.124;24.752;2023-12-20T04:29:07;39.67;;;18.63;;
80231;SDS011;74189;42.124;24.752;2023-12-20T04:31:32;35.85;;;17.55;;
80231;SDS011;74189;42.124;24.752;2023-12-20T04:33:58;40.00;;;19.38;;
80231;SDS011;74189;42.124;24.752;2023-12-20T04:36:24;35.92;;;19.00;;
80231;SDS011;74189;42.124;24.752;2023-12-20T04:38:51;40.92;;;18.05;;
80231;SDS011;74189;42.124;24.752;2023-12-20T04:41:18;41.72;;;19.38;;
80231;SDS011;74189;42.124;24.752;2023-12-20T04:43:44;41.88;;;19.80;;
80231;SDS011;74189;42.124;24.752;2023-12-20T04:46:09;36.88;;;18.42;;
80231;SDS011;74189;42.124;24.752;2023-12-20T04:48:35;36.30;;;19.05;;
80231;SDS011;74189;42.124;24.752;2023-12-20T04:51:01;40.58;;;19.60;;
80231;SDS011;74189;42.124;24.752;2023-12-20T04:53:27;39.72;;;18.92;;
80231;SDS011;74189;42.124;24.752;2023-12-20T04:55:52;44.45;;;21.45;;
80231;SDS011;74189;42.124;24.752;2023-12-20T04:58:18;45.28;;;19.35;;
80231;SDS011;74189;42.124;24.752;2023-12-20T05:00:44;46.28;;;21.33;;
80231;SDS011;74189;42.124;24.752;2023-12-20T05:03:09;51.42;;;21.90;;
80231;SDS011;74189;42.124;24.752;2023-12-20T05:05:35;42.28;;;21.15;;
80231;SDS011;74189;42.124;24.752;2023-12-20T05:08:01;42.92;;;20.38;;
80231;SDS011;74189;42.124;24.752;2023-12-20T05:10:27;45.38;;;20.92;;
80231;SDS011;74189;42.124;24.752;2023-12-20T05:12:53;49.78;;;19.27;;
80231;SDS011;74189;42.124;24.752;2023-12-20T05:15:18;45.17;;;21.42;;
80231;SDS011;74189;42.124;24.752;2023-12-20T05:17:44;45.83;;;19.75;;
80231;SDS011;74189;42.124;24.752;2023-12-20T05:20:10;43.03;;;21.02;;
80231;SDS011;74189;42.124;24.752;2023-12-20T05:22:35;38.47;;;19.27;;
80231;SDS011;74189;42.124;24.752;2023-12-20T05:25:01;45.58;;;20.02;;
80231;SDS011;74189;42.124;24.752;2023-12-20T05:27:27;46.00;;;21.63;;
80231;SDS011;74189;42.124;24.752;2023-12-20T05:29:52;42.72;;;20.10;;
80231;SDS011;74189;42.124;24.752;2023-12-20T05:32:22;41.78;;;20.20;;
80231;SDS011;74189;42.124;24.752;2023-12-20T05:34:48;40.53;;;19.55;;
80231;SDS011;74189;42.124;24.752;2023-12-20T05:37:14;44.92;;;21.50;;
80231;SDS011;74189;42.124;24.752;2023-12-20T05:39:39;47.55;;;22.65;;
80231;SDS011;74189;42.124;24.752;2023-12-20T05:42:05;44.55;;;22.02;;
80231;SDS011;74189;42.124;24.752;2023-12-20T05:44:30;49.90;;;24.10;;
80231;SDS011;74189;42.124;24.752;2023-12-20T05:46:56;46.55;;;24.80;;
80231;SDS011;74189;42.124;24.752;2023-12-20T05:49:22;46.45;;;24.02;;
80231;SDS011;74189;42.124;24.752;2023-12-20T05:51:47;53.63;;;24.88;;
80231;SDS011;74189;42.124;24.752;2023-12-20T05:54:13;56.95;;;25.90;;
80231;SDS011;74189;42.124;24.752;2023-12-20T05:56:38;54.70;;;24.88;;
80231;SDS011;74189;42.124;24.752;2023-12-20T05:59:04;48.25;;;23.25;;
80231;SDS011;74189;42.124;24.752;2023-12-20T06:01:30;56.63;;;26.90;;
80231;SDS011;74189;42.124;24.752;2023-12-20T06:03:55;54.40;;;26.05;;
80231;SDS011;74189;42.124;24.752;2023-12-20T06:06:21;62.42;;;28.77;;
80231;SDS011;74189;42.124;24.752;2023-12-20T06:08:46;57.65;;;28.10;;
80231;SDS011;74189;42.124;24.752;2023-12-20T06:11:12;59.78;;;29.92;;
80231;SDS011;74189;42.124;24.752;2023-12-20T06:13:38;67.13;;;31.08;;
80231;SDS011;74189;42.124;24.752;2023-12-20T06:16:05;68.40;;;32.05;;
80231;SDS011;74189;42.124;24.752;2023-12-20T06:18:32;52.45;;;28.27;;
80231;SDS011;74189;42.124;24.752;2023-12-20T06:20:57;60.30;;;28.60;;
80231;SDS011;74189;42.124;24.752;2023-12-20T06:23:23;60.83;;;30.88;;
80231;SDS011;74189;42.124;24.752;2023-12-20T06:25:49;65.13;;;33.63;;
80231;SDS011;74189;42.124;24.752;2023-12-20T06:28:14;81.05;;;38.88;;
80231;SDS011;74189;42.124;24.752;2023-12-20T06:30:40;72.07;;;36.30;;
80231;SDS011;74189;42.124;24.752;2023-12-20T06:33:06;77.65;;;36.67;;
80231;SDS011;74189;42.124;24.752;2023-12-20T06:35:32;83.57;;;38.45;;
80231;SDS011;74189;42.124;24.752;2023-12-20T06:37:57;79.60;;;40.70;;
80231;SDS011;74189;42.124;24.752;2023-12-20T06:40:23;83.35;;;42.50;;
80231;SDS011;74189;42.124;24.752;2023-12-20T06:42:49;90.90;;;43.83;;
80231;SDS011;74189;42.124;24.752;2023-12-20T06:45:14;90.95;;;43.65;;
80231;SDS011;74189;42.124;24.752;2023-12-20T06:47:40;74.25;;;40.15;;
80231;SDS011;74189;42.124;24.752;2023-12-20T06:50:06;79.25;;;43.30;;
80231;SDS011;74189;42.124;24.752;2023-12-20T06:52:33;95.57;;;46.70;;
80231;SDS011;74189;42.124;24.752;2023-12-20T06:55:00;106.53;;;49.42;;
80231;SDS011;74189;42.124;24.752;2023-12-20T06:57:25;87.18;;;42.95;;
80231;SDS011;74189;42.124;24.752;2023-12-20T06:59:51;84.22;;;42.15;;
80231;SDS011;74189;42.124;24.752;2023-12-20T07:02:18;90.63;;;45.17;;
80231;SDS011;74189;42.124;24.752;2023-12-20T07:04:44;94.68;;;45.95;;
80231;SDS011;74189;42.124;24.752;2023-12-20T07:07:09;86.57;;;44.17;;
80231;SDS011;74189;42.124;24.752;2023-12-20T07:09:35;88.60;;;44.85;;
80231;SDS011;74189;42.124;24.752;2023-12-20T07:12:00;81.97;;;41.83;;
80231;SDS011;74189;42.124;24.752;2023-12-20T07:14:27;78.93;;;41.67;;
80231;SDS011;74189;42.124;24.752;2023-12-20T07:16:53;84.03;;;40.58;;
80231;SDS011;74189;42.124;24.752;2023-12-20T07:19:18;84.38;;;41.72;;
80231;SDS011;74189;42.124;24.752;2023-12-20T07:21:44;110.22;;;52.72;;
80231;SDS011;74189;42.124;24.752;2023-12-20T07:24:10;108.43;;;58.08;;
80231;SDS011;74189;42.124;24.752;2023-12-20T07:26:36;122.55;;;64.20;;
80231;SDS011;74189;42.124;24.752;2023-12-20T07:29:03;151.50;;;76.80;;
80231;SDS011;74189;42.124;24.752;2023-12-20T07:31:29;134.43;;;73.28;;
80231;SDS011;74189;42.124;24.752;2023-12-20T07:33:54;130.10;;;71.32;;
80231;SDS011;74189;42.124;24.752;2023-12-20T07:36:20;117.78;;;64.50;;
80231;SDS011;74189;42.124;24.752;2023-12-20T07:38:46;132.43;;;68.53;;
80231;SDS011;74189;42.124;24.752;2023-12-20T07:41:12;119.90;;;62.47;;
80231;SDS011;74189;42.124;24.752;2023-12-20T07:43:38;128.45;;;64.75;;
80231;SDS011;74189;42.124;24.752;2023-12-20T07:46:07;114.20;;;63.67;;
80231;SDS011;74189;42.124;24.752;2023-12-20T07:48:34;125.20;;;66.78;;
80231;SDS011;74189;42.124;24.752;2023-12-20T07:51:00;124.03;;;65.25;;
80231;SDS011;74189;42.124;24.752;2023-12-20T07:53:26;145.18;;;67.68;;
80231;SDS011;74189;42.124;24.752;2023-12-20T07:55:52;132.30;;;69.82;;
80231;SDS011;74189;42.124;24.752;2023-12-20T07:58:18;138.63;;;68.78;;
80231;SDS011;74189;42.124;24.752;2023-12-20T08:00:44;136.43;;;67.75;;
80231;SDS011;74189;42.124;24.752;2023-12-20T08:03:10;136.65;;;68.85;;
80231;SDS011;74189;42.124;24.752;2023-12-20T08:05:35;132.25;;;64.93;;
80231;SDS011;74189;42.124;24.752;2023-12-20T08:08:02;121.55;;;62.95;;
80231;SDS011;74189;42.124;24.752;2023-12-20T08:10:28;118.38;;;61.20;;
80231;SDS011;74189;42.124;24.752;2023-12-20T08:12:55;113.95;;;58.45;;
80231;SDS011;74189;42.124;24.752;2023-12-20T08:15:20;108.22;;;55.97;;
80231;SDS011;74189;42.124;24.752;2023-12-20T08:17:46;112.53;;;55.53;;
80231;SDS011;74189;42.124;24.752;2023-12-20T08:20:11;101.20;;;49.35;;
80231;SDS011;74189;42.124;24.752;2023-12-20T08:22:37;80.03;;;42.55;;
80231;SDS011;74189;42.124;24.752;2023-12-20T08:25:03;92.00;;;47.78;;
80231;SDS011;74189;42.124;24.752;2023-12-20T08:27:29;84.35;;;44.08;;
80231;SDS011;74189;42.124;24.752;2023-12-20T08:29:56;66.85;;;41.17;;
80231;SDS011;74189;42.124;24.752;2023-12-20T08:32:24;74.63;;;41.00;;
80231;SDS011;74189;42.124;24.752;2023-12-20T08:34:51;79.57;;;41.00;;
80231;SDS011;74189;42.124;24.752;2023-12-20T08:37:17;79.47;;;38.72;;
80231;SDS011;74189;42.124;24.752;2023-12-20T08:39:42;76.30;;;37.35;;
80231;SDS011;74189;42.124;24.752;2023-12-20T08:42:09;77.47;;;36.38;;
80231;SDS011;74189;42.124;24.752;2023-12-20T08:44:34;63.28;;;31.95;;
80231;SDS011;74189;42.124;24.752;2023-12-20T08:47:00;60.63;;;32.30;;
80231;SDS011;74189;42.124;24.752;2023-12-20T08:49:26;61.83;;;34.25;;
80231;SDS011;74189;42.124;24.752;2023-12-20T08:51:53;60.15;;;31.52;;
80231;SDS011;74189;42.124;24.752;2023-12-20T08:54:18;68.53;;;33.70;;
80231;SDS011;74189;42.124;24.752;2023-12-20T08:56:44;62.80;;;33.45;;
80231;SDS011;74189;42.124;24.752;2023-12-20T08:59:11;69.90;;;33.70;;
80231;SDS011;74189;42.124;24.752;2023-12-20T09:01:37;70.32;;;33.72;;
80231;SDS011;74189;42.124;24.752;2023-12-20T09:04:02;66.93;;;33.28;;
80231;SDS011;74189;42.124;24.752;2023-12-20T09:06:28;67.50;;;32.90;;
80231;SDS011;74189;42.124;24.752;2023-12-20T09:08:54;54.58;;;30.08;;
80231;SDS011;74189;42.124;24.752;2023-12-20T09:11:19;48.42;;;27.63;;
80231;SDS011;74189;42.124;24.752;2023-12-20T09:13:45;51.45;;;26.00;;
80231;SDS011;74189;42.124;24.752;2023-12-20T09:16:11;49.22;;;25.95;;
80231;SDS011;74189;42.124;24.752;2023-12-20T09:18:38;57.65;;;27.52;;
80231;SDS011;74189;42.124;24.752;2023-12-20T09:21:03;60.35;;;29.95;;
80231;SDS011;74189;42.124;24.752;2023-12-20T09:23:29;58.33;;;29.38;;
80231;SDS011;74189;42.124;24.752;2023-12-20T09:25:55;55.20;;;29.35;;
80231;SDS011;74189;42.124;24.752;2023-12-20T09:28:20;70.35;;;33.65;;
80231;SDS011;74189;42.124;24.752;2023-12-20T09:30:46;61.05;;;30.88;;
80231;SDS011;74189;42.124;24.752;2023-12-20T09:33:12;64.57;;;30.23;;
80231;SDS011;74189;42.124;24.752;2023-12-20T09:35:39;61.65;;;31.85;;
80231;SDS011;74189;42.124;24.752;2023-12-20T09:38:04;68.78;;;33.65;;
80231;SDS011;74189;42.124;24.752;2023-12-20T09:40:30;70.28;;;33.88;;
80231;SDS011;74189;42.124;24.752;2023-12-20T09:43:05;78.93;;;37.03;;
80231;SDS011;74189;42.124;24.752;2023-12-20T09:45:36;70.95;;;35.33;;
80231;SDS011;74189;42.124;24.752;2023-12-20T09:48:04;84.18;;;35.03;;
80231;SDS011;74189;42.124;24.752;2023-12-20T09:50:30;75.32;;;34.33;;
80231;SDS011;74189;42.124;24.752;2023-12-20T09:52:57;68.18;;;34.40;;
80231;SDS011;74189;42.124;24.752;2023-12-20T09:55:25;81.57;;;35.92;;
80231;SDS011;74189;42.124;24.752;2023-12-20T09:57:53;83.57;;;35.60;;
80231;SDS011;74189;42.124;24.752;2023-12-20T10:00:18;76.85;;;34.75;;
80231;SDS011;74189;42.124;24.752;2023-12-20T10:05:19;76.25;;;35.78;;
80231;SDS011;74189;42.124;24.752;2023-12-20T10:07:53;80.20;;;37.78;;
80231;SDS011;74189;42.124;24.752;2023-12-20T10:10:18;76.68;;;35.53;;
80231;SDS011;74189;42.124;24.752;2023-12-20T10:13:03;82.93;;;36.00;;
80231;SDS011;74189;42.124;24.752;2023-12-20T10:15:30;80.18;;;36.75;;
80231;SDS011;74189;42.124;24.752;2023-12-20T10:17:57;81.57;;;37.75;;
80231;SDS011;74189;42.124;24.752;2023-12-20T10:20:23;85.82;;;37.72;;
80231;SDS011;74189;42.124;24.752;2023-12-20T10:22:49;82.55;;;36.97;;
80231;SDS011;74189;42.124;24.752;2023-12-20T10:25:14;74.78;;;35.10;;
80231;SDS011;74189;42.124;24.752;2023-12-20T10:27:40;77.00;;;36.83;;
80231;SDS011;74189;42.124;24.752;2023-12-20T10:30:06;79.47;;;37.30;;
80231;SDS011;74189;42.124;24.752;2023-12-20T10:32:32;90.70;;;41.00;;
80231;SDS011;74189;42.124;24.752;2023-12-20T10:34:58;81.15;;;41.10;;
80231;SDS011;74189;42.124;24.752;2023-12-20T10:37:24;80.10;;;38.63;;
80231;SDS011;74189;42.124;24.752;2023-12-20T10:39:50;85.43;;;38.72;;
80231;SDS011;74189;42.124;24.752;2023-12-20T10:42:21;76.47;;;39.00;;
80231;SDS011;74189;42.124;24.752;2023-12-20T10:44:47;84.32;;;39.00;;
80231;SDS011;74189;42.124;24.752;2023-12-20T10:47:14;83.65;;;38.65;;
80231;SDS011;74189;42.124;24.752;2023-12-20T10:49:41;82.20;;;37.05;;
80231;SDS011;74189;42.124;24.752;2023-12-20T10:52:07;75.13;;;38.13;;
80231;SDS011;74189;42.124;24.752;2023-12-20T10:54:34;78.45;;;37.22;;
80231;SDS011;74189;42.124;24.752;2023-12-20T10:57:00;82.82;;;38.33;;
80231;SDS011;74189;42.124;24.752;2023-12-20T10:59:29;80.22;;;37.67;;
80231;SDS011;74189;42.124;24.752;2023-12-20T11:02:02;81.60;;;38.80;;
80231;SDS011;74189;42.124;24.752;2023-12-20T11:04:43;83.25;;;39.55;;
80231;SDS011;74189;42.124;24.752;2023-12-20T11:10:36;91.70;;;40.45;;
80231;SDS011;74189;42.124;24.752;2023-12-20T11:15:24;81.15;;;36.55;;
80231;SDS011;74189;42.124;24.752;2023-12-20T11:17:55;84.53;;;37.00;;
80231;SDS011;74189;42.124;24.752;2023-12-20T11:20:35;89.78;;;38.63;;
80231;SDS011;74189;42.124;24.752;2023-12-20T11:23:02;85.30;;;37.75;;
80231;SDS011;74189;42.124;24.752;2023-12-20T11:25:28;82.55;;;39.13;;
80231;SDS011;74189;42.124;24.752;2023-12-20T11:28:06;90.00;;;38.00;;
80231;SDS011;74189;42.124;24.752;2023-12-20T11:30:47;89.43;;;40.53;;
80231;SDS011;74189;42.124;24.752;2023-12-20T11:33:17;97.22;;;40.95;;
80231;SDS011;74189;42.124;24.752;2023-12-20T11:35:50;83.88;;;38.70;;
80231;SDS011;74189;42.124;24.752;2023-12-20T11:38:16;96.55;;;40.67;;
80231;SDS011;74189;42.124;24.752;2023-12-20T11:40:47;107.38;;;42.85;;
80231;SDS011;74189;42.124;24.752;2023-12-20T11:43:29;95.85;;;42.03;;
80231;SDS011;74189;42.124;24.752;2023-12-20T11:46:03;93.32;;;41.90;;
80231;SDS011;74189;42.124;24.752;2023-12-20T11:48:30;98.00;;;43.40;;
80231;SDS011;74189;42.124;24.752;2023-12-20T11:50:56;104.85;;;44.65;;
80231;SDS011;74189;42.124;24.752;2023-12-20T11:53:22;103.03;;;44.00;;
80231;SDS011;74189;42.124;24.752;2023-12-20T11:55:48;95.90;;;42.35;;
80231;SDS011;74189;42.124;24.752;2023-12-20T11:58:14;94.38;;;42.20;;
80231;SDS011;74189;42.124;24.752;2023-12-20T12:00:41;91.78;;;42.80;;
80231;SDS011;74189;42.124;24.752;2023-12-20T12:03:08;92.57;;;39.88;;
80231;SDS011;74189;42.124;24.752;2023-12-20T12:05:33;84.68;;;40.42;;
80231;SDS011;74189;42.124;24.752;2023-12-20T12:08:00;85.97;;;40.72;;
80231;SDS011;74189;42.124;24.752;2023-12-20T12:10:26;90.28;;;42.03;;
80231;SDS011;74189;42.124;24.752;2023-12-20T12:12:54;87.40;;;41.05;;
80231;SDS011;74189;42.124;24.752;2023-12-20T12:15:19;93.10;;;43.05;;
80231;SDS011;74189;42.124;24.752;2023-12-20T12:17:55;84.75;;;39.15;;
80231;SDS011;74189;42.124;24.752;2023-12-20T12:20:21;88.05;;;41.50;;
80231;SDS011;74189;42.124;24.752;2023-12-20T12:23:01;86.50;;;41.40;;
80231;SDS011;74189;42.124;24.752;2023-12-20T12:25:29;89.57;;;41.67;;
80231;SDS011;74189;42.124;24.752;2023-12-20T12:27:56;100.57;;;43.70;;
80231;SDS011;74189;42.124;24.752;2023-12-20T12:30:23;88.55;;;41.70;;
80231;SDS011;74189;42.124;24.752;2023-12-20T12:32:50;88.28;;;39.97;;
80231;SDS011;74189;42.124;24.752;2023-12-20T12:35:17;92.38;;;41.58;;
80231;SDS011;74189;42.124;24.752;2023-12-20T12:37:43;83.03;;;38.58;;
80231;SDS011;74189;42.124;24.752;2023-12-20T12:40:12;91.25;;;39.33;;
80231;SDS011;74189;42.124;24.752;2023-12-20T12:42:39;85.05;;;38.67;;
80231;SDS011;74189;42.124;24.752;2023-12-20T12:45:06;72.82;;;38.75;;
80231;SDS011;74189;42.124;24.752;2023-12-20T12:47:32;70.05;;;38.70;;
80231;SDS011;74189;42.124;24.752;2023-12-20T12:49:58;74.32;;;37.88;;
80231;SDS011;74189;42.124;24.752;2023-12-20T12:52:24;77.95;;;38.05;;
80231;SDS011;74189;42.124;24.752;2023-12-20T12:54:51;77.50;;;38.50;;
80231;SDS011;74189;42.124;24.752;2023-12-20T12:57:17;82.50;;;37.78;;
80231;SDS011;74189;42.124;24.752;2023-12-20T12:59:44;73.43;;;38.08;;
80231;SDS011;74189;42.124;24.752;2023-12-20T13:02:11;81.95;;;39.28;;
80231;SDS011;74189;42.124;24.752;2023-12-20T13:04:38;83.57;;;39.28;;
80231;SDS011;74189;42.124;24.752;2023-12-20T13:07:04;77.40;;;38.47;;
80231;SDS011;74189;42.124;24.752;2023-12-20T13:09:31;82.55;;;38.15;;
80231;SDS011;74189;42.124;24.752;2023-12-20T13:11:56;83.85;;;38.80;;
80231;SDS011;74189;42.124;24.752;2023-12-20T13:14:22;84.65;;;38.33;;
80231;SDS011;74189;42.124;24.752;2023-12-20T13:16:48;81.25;;;39.47;;
80231;SDS011;74189;42.124;24.752;2023-12-20T13:19:13;76.97;;;38.53;;
80231;SDS011;74189;42.124;24.752;2023-12-20T13:21:39;82.53;;;37.30;;
80231;SDS011;74189;42.124;24.752;2023-12-20T13:24:05;76.43;;;37.10;;
80231;SDS011;74189;42.124;24.752;2023-12-20T13:26:31;75.18;;;37.38;;
80231;SDS011;74189;42.124;24.752;2023-12-20T13:28:57;78.43;;;36.63;;
80231;SDS011;74189;42.124;24.752;2023-12-20T13:31:23;66.13;;;34.95;;
80231;SDS011;74189;42.124;24.752;2023-12-20T13:33:49;63.05;;;33.78;;
80231;SDS011;74189;42.124;24.752;2023-12-20T13:36:14;74.18;;;36.30;;
80231;SDS011;74189;42.124;24.752;2023-12-20T13:38:40;87.05;;;40.47;;
80231;SDS011;74189;42.124;24.752;2023-12-20T13:41:06;102.97;;;45.92;;
80231;SDS011;74189;42.124;24.752;2023-12-20T13:43:32;94.70;;;43.70;;
80231;SDS011;74189;42.124;24.752;2023-12-20T13:45:59;106.18;;;42.53;;
80231;SDS011;74189;42.124;24.752;2023-12-20T13:48:25;102.18;;;42.70;;
80231;SDS011;74189;42.124;24.752;2023-12-20T13:50:50;101.55;;;39.67;;
80231;SDS011;74189;42.124;24.752;2023-12-20T13:53:16;104.85;;;42.20;;
80231;SDS011;74189;42.124;24.752;2023-12-20T13:55:42;95.05;;;41.17;;
80231;SDS011;74189;42.124;24.752;2023-12-20T13:58:07;92.22;;;39.58;;
80231;SDS011;74189;42.124;24.752;2023-12-20T14:00:35;98.93;;;43.15;;
80231;SDS011;74189;42.124;24.752;2023-12-20T14:03:01;95.28;;;42.63;;
80231;SDS011;74189;42.124;24.752;2023-12-20T14:05:28;100.47;;;43.03;;
80231;SDS011;74189;42.124;24.752;2023-12-20T14:07:54;111.53;;;41.55;;
80231;SDS011;74189;42.124;24.752;2023-12-20T14:10:19;99.72;;;40.60;;
80231;SDS011;74189;42.124;24.752;2023-12-20T14:12:45;89.50;;;40.33;;